Avalon Express — WDD7919 — position and weather

sailwx.info

Track history (hours):
 
Tides and Currents Weather Stations Pressure Air Temp Water Temp Dewpoint Dewpoint Depression Visibility Wind Speed Wind Dir Waves Ship Positions

Avalon Express

Owner: RGWT INC, San Pedro, CA. More information available from US FCC via Universal Licensing System and Coast Guard Vessel Documentation Center.

Last reported at 2016-Sep-26 02:34 UTC. Time now 2016-Sep-28 18:45 UTC.
Position N 33°25' W 118°17'.

Type: High speed craft. MMSI: 367192940.

Date/timePositionNaut miles runAvg speedWind from/ knotsBaromVisibWave heightAir tempDewpointWater temp
2016-Sep-26 02:34N 33°25' W 118°17'2019.3
2016-Sep-26 01:33N 33°45' W 118°16'0 0.0
2016-Sep-26 00:33N 33°45' W 118°16'7 2.3
2016-Sep-25 21:34N 33°38' W 118°15'13 3.3
2016-Sep-25 17:34N 33°25' W 118°18'2019.4
2016-Sep-25 16:33N 33°45' W 118°16'0 0.1
2016-Sep-25 15:33N 33°45' W 118°16'0 0.1
2016-Sep-25 14:33N 33°45' W 118°16'0 0.0
2016-Sep-25 04:18N 33°45' W 118°16'24 6.5
2016-Sep-25 00:33N 33°21' W 118°19'2412.2
2016-Sep-24 22:33N 33°45' W 118°16'0 0.0
2016-Sep-24 21:33N 33°45' W 118°16'24 9.6
2016-Sep-24 19:03N 33°21' W 118°19'1224.4
2016-Sep-24 18:34N 33°33' W 118°17'1212.2
2016-Sep-24 17:33N 33°45' W 118°16'0 0.1
2016-Sep-24 16:33N 33°45' W 118°16'0 0.0
2016-Sep-24 14:33N 33°45' W 118°16'0 0.0
2016-Sep-24 03:29N 33°45' W 118°16'0 0.1
2016-Sep-24 02:33N 33°45' W 118°16'6 5.7
2016-Sep-24 01:33N 33°39' W 118°15'1918.7
2016-Sep-24 00:32N 33°21' W 118°19'0 0.0
2016-Sep-23 19:33N 33°21' W 118°19'16 0.3
2016-Sep-21 19:32N 33°37' W 118°20'4 0.1
2016-Sep-19 19:32N 33°40' W 118°17'1614.2
2016-Sep-19 18:23N 33°27' W 118°29'15 8.5
2016-Sep-19 16:34N 33°38' W 118°15'7 3.6
2016-Sep-19 14:33N 33°45' W 118°16'0 0.0
2016-Sep-19 13:33N 33°45' W 118°16'0 0.0
2016-Sep-19 12:33N 33°45' W 118°16'0 0.0
2016-Sep-19 03:33N 33°45' W 118°16'0 0.0
2016-Sep-19 02:33N 33°45' W 118°16'2412.2
2016-Sep-19 00:33N 33°21' W 118°19'24 0.9
2016-Sep-17 20:33N 33°45' W 118°16'6 4.4
2016-Sep-17 19:16N 33°39' W 118°15'6 1.0
2016-Sep-17 13:33N 33°45' W 118°16'17 0.8
2016-Sep-16 17:25N 33°29' W 118°18'16 8.7
2016-Sep-16 15:32N 33°45' W 118°16'  
Track history (hours):
 
Tides and Currents Weather Stations Pressure Air Temp Water Temp Dewpoint Dewpoint Depression Visibility Wind Speed Wind Dir Waves Ship Positions

Avalon Express

Owner: RGWT INC, San Pedro, CA. More information available from US FCC via Universal Licensing System and Coast Guard Vessel Documentation Center.

Last reported at 2016-Sep-26 02:34 UTC. Time now 2016-Sep-28 18:45 UTC.
Position N 33°25' W 118°17'.

Type: High speed craft. MMSI: 367192940.

Date/timePositionNaut miles runAvg speedWind from/ knotsBaromVisibWave heightAir tempDewpointWater temp
2016-Sep-26 02:34N 33°25' W 118°17'2019.3
2016-Sep-26 01:33N 33°45' W 118°16'0 0.0
2016-Sep-26 00:33N 33°45' W 118°16'7 2.3
2016-Sep-25 21:34N 33°38' W 118°15'13 3.3
2016-Sep-25 17:34N 33°25' W 118°18'2019.4
2016-Sep-25 16:33N 33°45' W 118°16'0 0.1
2016-Sep-25 15:33N 33°45' W 118°16'0 0.1
2016-Sep-25 14:33N 33°45' W 118°16'0 0.0
2016-Sep-25 04:18N 33°45' W 118°16'24 6.5
2016-Sep-25 00:33N 33°21' W 118°19'2412.2
2016-Sep-24 22:33N 33°45' W 118°16'0 0.0
2016-Sep-24 21:33N 33°45' W 118°16'24 9.6
2016-Sep-24 19:03N 33°21' W 118°19'1224.4
2016-Sep-24 18:34N 33°33' W 118°17'1212.2
2016-Sep-24 17:33N 33°45' W 118°16'0 0.1
2016-Sep-24 16:33N 33°45' W 118°16'0 0.0
2016-Sep-24 14:33N 33°45' W 118°16'0 0.0
2016-Sep-24 03:29N 33°45' W 118°16'0 0.1
2016-Sep-24 02:33N 33°45' W 118°16'6 5.7
2016-Sep-24 01:33N 33°39' W 118°15'1918.7
2016-Sep-24 00:32N 33°21' W 118°19'0 0.0
2016-Sep-23 19:33N 33°21' W 118°19'16 0.3
2016-Sep-21 19:32N 33°37' W 118°20'4 0.1
2016-Sep-19 19:32N 33°40' W 118°17'1614.2
2016-Sep-19 18:23N 33°27' W 118°29'15 8.5
2016-Sep-19 16:34N 33°38' W 118°15'7 3.6
2016-Sep-19 14:33N 33°45' W 118°16'0 0.0
2016-Sep-19 13:33N 33°45' W 118°16'0 0.0
2016-Sep-19 12:33N 33°45' W 118°16'0 0.0
2016-Sep-19 03:33N 33°45' W 118°16'0 0.0
2016-Sep-19 02:33N 33°45' W 118°16'2412.2
2016-Sep-19 00:33N 33°21' W 118°19'24 0.9
2016-Sep-17 20:33N 33°45' W 118°16'6 4.4
2016-Sep-17 19:16N 33°39' W 118°15'6 1.0
2016-Sep-17 13:33N 33°45' W 118°16'17 0.8
2016-Sep-16 17:25N 33°29' W 118°18'16 8.7
2016-Sep-16 15:32N 33°45' W 118°16'  

Dump ship's entire track history